sensor_id;sensor_type;location;lat;lon;timestamp;pressure;altitude;pressure_sealevel;temperature;humidity
11672;BME280;5892;43.412;24.612;2023-04-19T00:01:45;99702.22;;;11.08;100.00
11672;BME280;5892;43.412;24.612;2023-04-19T00:04:12;99700.31;;;11.00;100.00
11672;BME280;5892;43.412;24.612;2023-04-19T00:06:40;99588.69;;;10.25;100.00
11672;BME280;5892;43.412;24.612;2023-04-19T00:09:07;99621.47;;;10.50;100.00
11672;BME280;5892;43.412;24.612;2023-04-19T00:11:34;99700.28;;;11.09;100.00
11672;BME280;5892;43.412;24.612;2023-04-19T00:14:01;99722.03;;;11.14;100.00
11672;BME280;5892;43.412;24.612;2023-04-19T00:16:28;99704.47;;;11.15;100.00
11672;BME280;5892;43.412;24.612;2023-04-19T00:18:57;99701.41;;;11.08;100.00
11672;BME280;5892;43.412;24.612;2023-04-19T00:21:24;99707.03;;;11.11;100.00
11672;BME280;5892;43.412;24.612;2023-04-19T00:23:51;99696.38;;;11.10;100.00
11672;BME280;5892;43.412;24.612;2023-04-19T00:26:18;99699.31;;;11.13;100.00
11672;BME280;5892;43.412;24.612;2023-04-19T00:28:45;99695.44;;;11.14;100.00
11672;BME280;5892;43.412;24.612;2023-04-19T00:31:12;99691.53;;;11.15;100.00
11672;BME280;5892;43.412;24.612;2023-04-19T00:33:39;99697.31;;;11.22;100.00
11672;BME280;5892;43.412;24.612;2023-04-19T00:36:08;99697.09;;;10.98;100.00
11672;BME280;5892;43.412;24.612;2023-04-19T00:38:35;99688.53;;;10.99;100.00
11672;BME280;5892;43.412;24.612;2023-04-19T00:41:02;99647.56;;;10.56;100.00
11672;BME280;5892;43.412;24.612;2023-04-19T00:43:29;99694.19;;;11.03;100.00
11672;BME280;5892;43.412;24.612;2023-04-19T00:45:56;99687.38;;;11.09;100.00
11672;BME280;5892;43.412;24.612;2023-04-19T00:48:23;99672.44;;;10.98;100.00
11672;BME280;5892;43.412;24.612;2023-04-19T00:50:51;99665.00;;;10.98;100.00
11672;BME280;5892;43.412;24.612;2023-04-19T00:53:20;99681.09;;;11.09;100.00
11672;BME280;5892;43.412;24.612;2023-04-19T00:55:47;99686.56;;;11.09;100.00
11672;BME280;5892;43.412;24.612;2023-04-19T00:58:16;99681.78;;;10.97;100.00
11672;BME280;5892;43.412;24.612;2023-04-19T01:00:43;99663.41;;;10.89;100.00
11672;BME280;5892;43.412;24.612;2023-04-19T01:03:10;99688.03;;;11.06;100.00
11672;BME280;5892;43.412;24.612;2023-04-19T01:05:37;99682.53;;;11.06;100.00
11672;BME280;5892;43.412;24.612;2023-04-19T01:08:04;99669.69;;;10.98;100.00
11672;BME280;5892;43.412;24.612;2023-04-19T01:10:34;99583.13;;;10.50;100.00
11672;BME280;5892;43.412;24.612;2023-04-19T01:13:01;99664.22;;;10.98;100.00
11672;BME280;5892;43.412;24.612;2023-04-19T01:15:28;99681.72;;;11.14;100.00
11672;BME280;5892;43.412;24.612;2023-04-19T01:17:56;99599.38;;;10.55;100.00
11672;BME280;5892;43.412;24.612;2023-04-19T01:20:23;99664.47;;;11.14;100.00
11672;BME280;5892;43.412;24.612;2023-04-19T01:22:51;99680.28;;;11.08;100.00
11672;BME280;5892;43.412;24.612;2023-04-19T01:25:19;99668.66;;;11.11;100.00
11672;BME280;5892;43.412;24.612;2023-04-19T01:27:46;99608.00;;;10.75;100.00
11672;BME280;5892;43.412;24.612;2023-04-19T01:30:13;99637.41;;;11.03;100.00
11672;BME280;5892;43.412;24.612;2023-04-19T01:32:40;99651.25;;;11.07;100.00
11672;BME280;5892;43.412;24.612;2023-04-19T01:35:07;99683.78;;;11.17;100.00
11672;BME280;5892;43.412;24.612;2023-04-19T01:37:35;99647.94;;;10.84;100.00
11672;BME280;5892;43.412;24.612;2023-04-19T01:40:05;99661.81;;;10.88;100.00
11672;BME280;5892;43.412;24.612;2023-04-19T01:42:32;99647.78;;;10.89;100.00
11672;BME280;5892;43.412;24.612;2023-04-19T01:45:00;99649.06;;;10.92;100.00
11672;BME280;5892;43.412;24.612;2023-04-19T01:47:29;99657.59;;;10.99;100.00
11672;BME280;5892;43.412;24.612;2023-04-19T01:49:55;99660.66;;;10.97;100.00
11672;BME280;5892;43.412;24.612;2023-04-19T01:52:22;99593.78;;;10.43;100.00
11672;BME280;5892;43.412;24.612;2023-04-19T01:54:49;99645.63;;;11.03;100.00
11672;BME280;5892;43.412;24.612;2023-04-19T01:57:18;99631.84;;;10.83;100.00
11672;BME280;5892;43.412;24.612;2023-04-19T01:59:45;99625.19;;;10.92;100.00
11672;BME280;5892;43.412;24.612;2023-04-19T02:02:12;99645.78;;;11.07;100.00
11672;BME280;5892;43.412;24.612;2023-04-19T02:04:39;99608.00;;;10.75;100.00
11672;BME280;5892;43.412;24.612;2023-04-19T02:07:06;99643.03;;;11.07;100.00
11672;BME280;5892;43.412;24.612;2023-04-19T02:09:34;99635.41;;;10.83;100.00
11672;BME280;5892;43.412;24.612;2023-04-19T02:12:02;99612.50;;;10.79;100.00
11672;BME280;5892;43.412;24.612;2023-04-19T02:14:30;99643.09;;;10.90;100.00
11672;BME280;5892;43.412;24.612;2023-04-19T02:16:57;99612.84;;;10.78;100.00
11672;BME280;5892;43.412;24.612;2023-04-19T02:19:24;99645.38;;;10.88;100.00
11672;BME280;5892;43.412;24.612;2023-04-19T02:21:51;99641.03;;;10.78;100.00
11672;BME280;5892;43.412;24.612;2023-04-19T02:24:22;99629.97;;;10.66;100.00
11672;BME280;5892;43.412;24.612;2023-04-19T02:26:49;99593.28;;;10.50;100.00
11672;BME280;5892;43.412;24.612;2023-04-19T02:29:16;99618.53;;;10.73;100.00
11672;BME280;5892;43.412;24.612;2023-04-19T02:31:44;99628.63;;;10.81;100.00
11672;BME280;5892;43.412;24.612;2023-04-19T02:34:11;99539.09;;;10.09;100.00
11672;BME280;5892;43.412;24.612;2023-04-19T02:36:38;99600.81;;;10.61;100.00
11672;BME280;5892;43.412;24.612;2023-04-19T02:39:05;99662.28;;;10.90;100.00
11672;BME280;5892;43.412;24.612;2023-04-19T02:41:33;99485.50;;;9.99;100.00
11672;BME280;5892;43.412;24.612;2023-04-19T02:44:00;99492.88;;;10.07;100.00
11672;BME280;5892;43.412;24.612;2023-04-19T02:46:27;99550.19;;;10.30;100.00
11672;BME280;5892;43.412;24.612;2023-04-19T02:48:55;99523.00;;;9.99;100.00
11672;BME280;5892;43.412;24.612;2023-04-19T02:51:22;99494.66;;;9.95;100.00
11672;BME280;5892;43.412;24.612;2023-04-19T02:53:51;99646.63;;;10.99;100.00
11672;BME280;5892;43.412;24.612;2023-04-19T02:56:18;99624.47;;;10.75;100.00
11672;BME280;5892;43.412;24.612;2023-04-19T02:58:45;99627.06;;;10.62;100.00
11672;BME280;5892;43.412;24.612;2023-04-19T03:01:12;99568.94;;;10.48;100.00
11672;BME280;5892;43.412;24.612;2023-04-19T03:03:39;99646.50;;;10.87;100.00
11672;BME280;5892;43.412;24.612;2023-04-19T03:06:07;99640.34;;;10.90;100.00
11672;BME280;5892;43.412;24.612;2023-04-19T03:08:35;99648.41;;;10.95;100.00
11672;BME280;5892;43.412;24.612;2023-04-19T03:11:01;99639.59;;;10.81;100.00
11672;BME280;5892;43.412;24.612;2023-04-19T03:13:28;99629.16;;;10.66;100.00
11672;BME280;5892;43.412;24.612;2023-04-19T03:15:55;99637.16;;;10.88;100.00
11672;BME280;5892;43.412;24.612;2023-04-19T03:18:22;99543.25;;;10.15;100.00
11672;BME280;5892;43.412;24.612;2023-04-19T03:20:50;99635.41;;;10.83;100.00
11672;BME280;5892;43.412;24.612;2023-04-19T03:23:18;99565.13;;;10.32;100.00
11672;BME280;5892;43.412;24.612;2023-04-19T03:25:45;99643.75;;;10.87;100.00
11672;BME280;5892;43.412;24.612;2023-04-19T03:28:12;99581.88;;;10.39;100.00
11672;BME280;5892;43.412;24.612;2023-04-19T03:30:42;99540.22;;;10.25;100.00
11672;BME280;5892;43.412;24.612;2023-04-19T03:33:12;99625.41;;;10.79;100.00
11672;BME280;5892;43.412;24.612;2023-04-19T03:35:39;99639.56;;;10.89;100.00
11672;BME280;5892;43.412;24.612;2023-04-19T03:38:06;99617.19;;;10.79;100.00
11672;BME280;5892;43.412;24.612;2023-04-19T03:40:36;99603.38;;;10.67;100.00
11672;BME280;5892;43.412;24.612;2023-04-19T03:43:03;99567.34;;;10.47;100.00
11672;BME280;5892;43.412;24.612;2023-04-19T03:45:30;99620.00;;;10.61;100.00
11672;BME280;5892;43.412;24.612;2023-04-19T03:47:57;99669.56;;;10.86;100.00
11672;BME280;5892;43.412;24.612;2023-04-19T03:50:24;99587.50;;;10.43;100.00
11672;BME280;5892;43.412;24.612;2023-04-19T03:52:51;99646.09;;;10.68;100.00
11672;BME280;5892;43.412;24.612;2023-04-19T03:55:19;99639.78;;;10.76;100.00
11672;BME280;5892;43.412;24.612;2023-04-19T03:57:48;99643.75;;;10.87;100.00
11672;BME280;5892;43.412;24.612;2023-04-19T04:00:15;99676.97;;;10.85;100.00
11672;BME280;5892;43.412;24.612;2023-04-19T04:02:42;99640.44;;;10.73;100.00
11672;BME280;5892;43.412;24.612;2023-04-19T04:05:09;99658.28;;;10.87;100.00
11672;BME280;5892;43.412;24.612;2023-04-19T04:07:36;99639.19;;;10.61;100.00
11672;BME280;5892;43.412;24.612;2023-04-19T04:10:04;99663.94;;;10.74;100.00
11672;BME280;5892;43.412;24.612;2023-04-19T04:12:31;99632.91;;;10.61;100.00
11672;BME280;5892;43.412;24.612;2023-04-19T04:15:01;99663.16;;;10.65;100.00
11672;BME280;5892;43.412;24.612;2023-04-19T04:17:28;99672.97;;;10.83;100.00
11672;BME280;5892;43.412;24.612;2023-04-19T04:19:55;99653.97;;;10.78;100.00
11672;BME280;5892;43.412;24.612;2023-04-19T04:22:22;99656.34;;;10.88;100.00
11672;BME280;5892;43.412;24.612;2023-04-19T04:24:49;99625.16;;;10.54;100.00
11672;BME280;5892;43.412;24.612;2023-04-19T04:27:18;99575.91;;;10.37;100.00
11672;BME280;5892;43.412;24.612;2023-04-19T04:29:46;99635.41;;;10.75;100.00
11672;BME280;5892;43.412;24.612;2023-04-19T04:32:15;99660.50;;;10.94;100.00
11672;BME280;5892;43.412;24.612;2023-04-19T04:34:42;99659.84;;;10.97;100.00
11672;BME280;5892;43.412;24.612;2023-04-19T04:37:13;99635.69;;;10.90;100.00
11672;BME280;5892;43.412;24.612;2023-04-19T04:39:40;99607.88;;;10.62;100.00
11672;BME280;5892;43.412;24.612;2023-04-19T04:42:07;99607.88;;;10.62;100.00
11672;BME280;5892;43.412;24.612;2023-04-19T04:44:35;99663.72;;;10.96;100.00
11672;BME280;5892;43.412;24.612;2023-04-19T04:47:03;99631.22;;;10.77;100.00
11672;BME280;5892;43.412;24.612;2023-04-19T04:49:32;99579.47;;;10.38;100.00
11672;BME280;5892;43.412;24.612;2023-04-19T04:51:59;99622.88;;;10.65;100.00
11672;BME280;5892;43.412;24.612;2023-04-19T04:54:27;99657.91;;;10.97;100.00
11672;BME280;5892;43.412;24.612;2023-04-19T04:56:53;99666.09;;;11.06;100.00
11672;BME280;5892;43.412;24.612;2023-04-19T04:59:20;99641.75;;;10.67;100.00
11672;BME280;5892;43.412;24.612;2023-04-19T05:01:47;99566.69;;;10.50;100.00
11672;BME280;5892;43.412;24.612;2023-04-19T05:04:14;99612.50;;;10.79;100.00
11672;BME280;5892;43.412;24.612;2023-04-19T05:06:42;99660.25;;;11.16;100.00
11672;BME280;5892;43.412;24.612;2023-04-19T05:09:09;99628.81;;;11.14;100.00
11672;BME280;5892;43.412;24.612;2023-04-19T05:11:37;99650.13;;;11.37;100.00
11672;BME280;5892;43.412;24.612;2023-04-19T05:14:04;99656.75;;;11.36;100.00
11672;BME280;5892;43.412;24.612;2023-04-19T05:16:31;99706.53;;;11.56;100.00
11672;BME280;5892;43.412;24.612;2023-04-19T05:18:58;99619.22;;;11.28;100.00
11672;BME280;5892;43.412;24.612;2023-04-19T05:21:25;99641.19;;;11.49;100.00
11672;BME280;5892;43.412;24.612;2023-04-19T05:23:54;99676.28;;;11.64;100.00
11672;BME280;5892;43.412;24.612;2023-04-19T05:26:21;99633.03;;;11.40;100.00
11672;BME280;5892;43.412;24.612;2023-04-19T05:28:48;99672.06;;;11.67;100.00
11672;BME280;5892;43.412;24.612;2023-04-19T05:31:15;99670.66;;;11.61;100.00
11672;BME280;5892;43.412;24.612;2023-04-19T05:33:42;99662.22;;;11.36;100.00
11672;BME280;5892;43.412;24.612;2023-04-19T05:36:09;99603.16;;;11.10;100.00
11672;BME280;5892;43.412;24.612;2023-04-19T05:38:36;99646.06;;;11.43;100.00
11672;BME280;5892;43.412;24.612;2023-04-19T05:41:05;99665.00;;;11.57;100.00
11672;BME280;5892;43.412;24.612;2023-04-19T05:43:32;99601.16;;;10.98;100.00
11672;BME280;5892;43.412;24.612;2023-04-19T05:45:59;99705.75;;;11.46;100.00
11672;BME280;5892;43.412;24.612;2023-04-19T05:48:26;99670.56;;;11.48;100.00
11672;BME280;5892;43.412;24.612;2023-04-19T05:50:53;99681.84;;;11.47;100.00
11672;BME280;5892;43.412;24.612;2023-04-19T05:53:21;99650.63;;;11.31;100.00
11672;BME280;5892;43.412;24.612;2023-04-19T05:55:48;99615.34;;;11.29;100.00
11672;BME280;5892;43.412;24.612;2023-04-19T05:58:18;99618.09;;;11.29;100.00
11672;BME280;5892;43.412;24.612;2023-04-19T06:00:45;99672.84;;;11.97;100.00
11672;BME280;5892;43.412;24.612;2023-04-19T06:03:13;99633.22;;;11.85;100.00
11672;BME280;5892;43.412;24.612;2023-04-19T06:05:40;99675.44;;;12.35;100.00
11672;BME280;5892;43.412;24.612;2023-04-19T06:08:07;99650.03;;;12.38;100.00
11672;BME280;5892;43.412;24.612;2023-04-19T06:10:35;99689.19;;;12.80;100.00
11672;BME280;5892;43.412;24.612;2023-04-19T06:13:02;99649.34;;;12.41;100.00
11672;BME280;5892;43.412;24.612;2023-04-19T06:15:31;99680.56;;;13.14;100.00
11672;BME280;5892;43.412;24.612;2023-04-19T06:17:58;99665.50;;;12.99;100.00
11672;BME280;5892;43.412;24.612;2023-04-19T06:20:25;99610.66;;;12.46;100.00
11672;BME280;5892;43.412;24.612;2023-04-19T06:22:52;99592.59;;;12.45;100.00
11672;BME280;5892;43.412;24.612;2023-04-19T06:25:19;99708.66;;;13.20;100.00
11672;BME280;5892;43.412;24.612;2023-04-19T06:27:46;99668.09;;;13.17;100.00
11672;BME280;5892;43.412;24.612;2023-04-19T06:30:13;99694.22;;;13.35;100.00
11672;BME280;5892;43.412;24.612;2023-04-19T06:32:42;99723.72;;;13.34;100.00
11672;BME280;5892;43.412;24.612;2023-04-19T06:35:09;99672.91;;;13.20;100.00
11672;BME280;5892;43.412;24.612;2023-04-19T06:37:36;99666.16;;;13.17;100.00
11672;BME280;5892;43.412;24.612;2023-04-19T06:40:04;99591.38;;;12.91;100.00
11672;BME280;5892;43.412;24.612;2023-04-19T06:42:33;99637.03;;;13.16;100.00
11672;BME280;5892;43.412;24.612;2023-04-19T06:45:01;99633.34;;;13.24;100.00
11672;BME280;5892;43.412;24.612;2023-04-19T06:47:28;99713.72;;;13.54;100.00
11672;BME280;5892;43.412;24.612;2023-04-19T06:49:57;99550.22;;;12.58;100.00
11672;BME280;5892;43.412;24.612;2023-04-19T06:52:24;99640.47;;;13.13;100.00
11672;BME280;5892;43.412;24.612;2023-04-19T06:54:51;99644.44;;;13.03;100.00
11672;BME280;5892;43.412;24.612;2023-04-19T06:57:18;99614.22;;;13.28;100.00
11672;BME280;5892;43.412;24.612;2023-04-19T06:59:45;99697.03;;;13.99;100.00
11672;BME280;5892;43.412;24.612;2023-04-19T07:02:12;99702.50;;;14.23;100.00
11672;BME280;5892;43.412;24.612;2023-04-19T07:04:39;99689.63;;;14.27;100.00
11672;BME280;5892;43.412;24.612;2023-04-19T07:07:08;99641.81;;;14.08;100.00
11672;BME280;5892;43.412;24.612;2023-04-19T07:09:35;99684.06;;;14.67;100.00
11672;BME280;5892;43.412;24.612;2023-04-19T07:12:02;99729.38;;;14.82;100.00
11672;BME280;5892;43.412;24.612;2023-04-19T07:14:29;99618.03;;;14.43;100.00
11672;BME280;5892;43.412;24.612;2023-04-19T07:16:56;99713.13;;;15.08;100.00
11672;BME280;5892;43.412;24.612;2023-04-19T07:19:23;99614.50;;;14.74;100.00
11672;BME280;5892;43.412;24.612;2023-04-19T07:21:50;99686.25;;;15.68;100.00
11672;BME280;5892;43.412;24.612;2023-04-19T07:24:19;99705.09;;;15.82;100.00
11672;BME280;5892;43.412;24.612;2023-04-19T07:26:46;99661.97;;;15.77;100.00
11672;BME280;5892;43.412;24.612;2023-04-19T07:29:13;99680.56;;;15.96;100.00
11672;BME280;5892;43.412;24.612;2023-04-19T07:31:40;99697.31;;;16.22;100.00
11672;BME280;5892;43.412;24.612;2023-04-19T07:34:07;99596.03;;;15.76;100.00
11672;BME280;5892;43.412;24.612;2023-04-19T07:36:35;99709.09;;;16.58;100.00
11672;BME280;5892;43.412;24.612;2023-04-19T07:39:03;99701.91;;;16.53;100.00
11672;BME280;5892;43.412;24.612;2023-04-19T07:41:32;99691.03;;;16.44;100.00
11672;BME280;5892;43.412;24.612;2023-04-19T07:43:59;99664.44;;;16.17;100.00
11672;BME280;5892;43.412;24.612;2023-04-19T07:46:26;99612.41;;;16.23;100.00
11672;BME280;5892;43.412;24.612;2023-04-19T07:48:53;99701.00;;;16.87;100.00
11672;BME280;5892;43.412;24.612;2023-04-19T07:51:20;99681.69;;;16.91;100.00
11672;BME280;5892;43.412;24.612;2023-04-19T07:53:49;99699.25;;;17.21;100.00
11672;BME280;5892;43.412;24.612;2023-04-19T07:56:16;99668.78;;;16.99;100.00
11672;BME280;5892;43.412;24.612;2023-04-19T07:58:45;99674.66;;;17.16;100.00
11672;BME280;5892;43.412;24.612;2023-04-19T08:01:13;99693.56;;;17.60;100.00
11672;BME280;5892;43.412;24.612;2023-04-19T08:03:40;99692.69;;;17.56;100.00
11672;BME280;5892;43.412;24.612;2023-04-19T08:06:07;99702.84;;;17.48;100.00
11672;BME280;5892;43.412;24.612;2023-04-19T08:08:34;99613.88;;;16.78;100.00
11672;BME280;5892;43.412;24.612;2023-04-19T08:11:01;99698.94;;;17.04;100.00
11672;BME280;5892;43.412;24.612;2023-04-19T08:13:28;99691.16;;;17.13;100.00
11672;BME280;5892;43.412;24.612;2023-04-19T08:15:57;99696.09;;;17.00;100.00
11672;BME280;5892;43.412;24.612;2023-04-19T08:18:24;99705.41;;;17.11;100.00
11672;BME280;5892;43.412;24.612;2023-04-19T08:20:51;99679.06;;;16.98;100.00
11672;BME280;5892;43.412;24.612;2023-04-19T08:23:18;99575.38;;;16.27;100.00
11672;BME280;5892;43.412;24.612;2023-04-19T08:25:45;99612.88;;;16.67;100.00
11672;BME280;5892;43.412;24.612;2023-04-19T08:28:12;99688.97;;;16.99;100.00
11672;BME280;5892;43.412;24.612;2023-04-19T08:30:39;99623.97;;;16.47;100.00
11672;BME280;5892;43.412;24.612;2023-04-19T08:33:08;99687.63;;;16.70;100.00
11672;BME280;5892;43.412;24.612;2023-04-19T08:35:36;99675.78;;;16.31;100.00
11672;BME280;5892;43.412;24.612;2023-04-19T08:38:05;99671.56;;;16.37;100.00
11672;BME280;5892;43.412;24.612;2023-04-19T08:40:32;99685.59;;;16.67;100.00
11672;BME280;5892;43.412;24.612;2023-04-19T08:43:04;99669.91;;;16.75;100.00
11672;BME280;5892;43.412;24.612;2023-04-19T08:45:31;99686.91;;;16.96;100.00
11672;BME280;5892;43.412;24.612;2023-04-19T08:48:00;99688.13;;;16.76;100.00
11672;BME280;5892;43.412;24.612;2023-04-19T08:50:30;99669.19;;;16.78;100.00
11672;BME280;5892;43.412;24.612;2023-04-19T08:52:58;99615.56;;;16.44;100.00
11672;BME280;5892;43.412;24.612;2023-04-19T08:55:26;99676.00;;;16.61;100.00
11672;BME280;5892;43.412;24.612;2023-04-19T08:57:55;99658.69;;;16.26;100.00
11672;BME280;5892;43.412;24.612;2023-04-19T09:00:22;99665.06;;;16.30;100.00
11672;BME280;5892;43.412;24.612;2023-04-19T09:02:51;99634.53;;;16.42;100.00
11672;BME280;5892;43.412;24.612;2023-04-19T09:05:18;99668.78;;;16.57;100.00
11672;BME280;5892;43.412;24.612;2023-04-19T09:07:48;99654.22;;;16.60;100.00
11672;BME280;5892;43.412;24.612;2023-04-19T09:10:16;99604.13;;;16.03;100.00
11672;BME280;5892;43.412;24.612;2023-04-19T09:12:58;99675.63;;;16.05;100.00
11672;BME280;5892;43.412;24.612;2023-04-19T09:15:34;99675.63;;;16.05;100.00
11672;BME280;5892;43.412;24.612;2023-04-19T09:18:03;99674.66;;;15.97;100.00
11672;BME280;5892;43.412;24.612;2023-04-19T09:20:35;99659.75;;;16.02;100.00
11672;BME280;5892;43.412;24.612;2023-04-19T09:23:04;99638.88;;;16.04;100.00
11672;BME280;5892;43.412;24.612;2023-04-19T09:25:32;99671.47;;;16.34;100.00
11672;BME280;5892;43.412;24.612;2023-04-19T09:28:08;99666.69;;;16.31;100.00
11672;BME280;5892;43.412;24.612;2023-04-19T09:30:35;99655.03;;;16.02;100.00
11672;BME280;5892;43.412;24.612;2023-04-19T09:33:02;99659.75;;;16.02;100.00
11672;BME280;5892;43.412;24.612;2023-04-19T09:35:39;99565.66;;;15.41;100.00
11672;BME280;5892;43.412;24.612;2023-04-19T09:38:08;99672.28;;;16.34;100.00
11672;BME280;5892;43.412;24.612;2023-04-19T09:40:36;99649.50;;;16.02;100.00
11672;BME280;5892;43.412;24.612;2023-04-19T09:43:03;99681.28;;;16.50;100.00
11672;BME280;5892;43.412;24.612;2023-04-19T09:45:39;99676.13;;;16.49;100.00
11672;BME280;5892;43.412;24.612;2023-04-19T09:48:07;99680.50;;;16.50;100.00
11672;BME280;5892;43.412;24.612;2023-04-19T09:50:34;99675.47;;;16.36;100.00
11672;BME280;5892;43.412;24.612;2023-04-19T09:53:01;99683.28;;;16.31;100.00
11672;BME280;5892;43.412;24.612;2023-04-19T09:55:30;99685.53;;;16.64;100.00
11672;BME280;5892;43.412;24.612;2023-04-19T09:57:57;99685.91;;;16.62;100.00
11672;BME280;5892;43.412;24.612;2023-04-19T10:00:24;99663.53;;;16.71;100.00
11672;BME280;5892;43.412;24.612;2023-04-19T10:02:52;99676.97;;;17.14;100.00
11672;BME280;5892;43.412;24.612;2023-04-19T10:05:22;99668.25;;;17.38;100.00
11672;BME280;5892;43.412;24.612;2023-04-19T10:07:49;99674.03;;;17.26;100.00
11672;BME280;5892;43.412;24.612;2023-04-19T10:10:20;99677.66;;;17.57;100.00
11672;BME280;5892;43.412;24.612;2023-04-19T10:12:51;99636.78;;;17.24;100.00
11672;BME280;5892;43.412;24.612;2023-04-19T10:15:19;99674.41;;;17.74;100.00
11672;BME280;5892;43.412;24.612;2023-04-19T10:17:47;99641.91;;;17.74;97.47
11672;BME280;5892;43.412;24.612;2023-04-19T10:20:19;99610.00;;;17.58;85.33
11672;BME280;5892;43.412;24.612;2023-04-19T10:22:47;99632.03;;;18.03;84.76
11672;BME280;5892;43.412;24.612;2023-04-19T10:25:15;99626.72;;;17.91;83.63
11672;BME280;5892;43.412;24.612;2023-04-19T10:27:43;99665.34;;;18.07;82.58
11672;BME280;5892;43.412;24.612;2023-04-19T10:30:18;99600.63;;;17.40;84.18
11672;BME280;5892;43.412;24.612;2023-04-19T10:32:50;99688.88;;;17.64;86.86
11672;BME280;5892;43.412;24.612;2023-04-19T10:35:18;99626.97;;;17.79;86.53
11672;BME280;5892;43.412;24.612;2023-04-19T10:38:07;99650.94;;;18.28;82.09
11672;BME280;5892;43.412;24.612;2023-04-19T10:40:54;99614.19;;;18.34;79.93
11672;BME280;5892;43.412;24.612;2023-04-19T10:43:22;99651.00;;;18.65;80.24
11672;BME280;5892;43.412;24.612;2023-04-19T10:45:51;99626.38;;;18.59;78.05
11672;BME280;5892;43.412;24.612;2023-04-19T10:48:34;99639.09;;;18.64;79.60
11672;BME280;5892;43.412;24.612;2023-04-19T10:51:07;99635.00;;;18.91;76.58
11672;BME280;5892;43.412;24.612;2023-04-19T10:53:50;99584.75;;;18.59;76.78
11672;BME280;5892;43.412;24.612;2023-04-19T10:56:19;99609.19;;;18.47;77.81
11672;BME280;5892;43.412;24.612;2023-04-19T10:59:14;99628.81;;;18.31;80.92
11672;BME280;5892;43.412;24.612;2023-04-19T11:01:54;99621.44;;;17.79;82.51
11672;BME280;5892;43.412;24.612;2023-04-19T11:04:23;99639.88;;;17.68;83.67
11672;BME280;5892;43.412;24.612;2023-04-19T11:06:57;99622.25;;;17.83;82.93
11672;BME280;5892;43.412;24.612;2023-04-19T11:09:28;99630.47;;;17.76;81.55
11672;BME280;5892;43.412;24.612;2023-04-19T11:12:01;99619.25;;;17.95;82.46
11672;BME280;5892;43.412;24.612;2023-04-19T11:14:30;99575.13;;;17.53;82.69
11672;BME280;5892;43.412;24.612;2023-04-19T11:17:01;99610.41;;;18.16;81.89
11672;BME280;5892;43.412;24.612;2023-04-19T11:19:29;99535.56;;;17.83;81.26
11672;BME280;5892;43.412;24.612;2023-04-19T11:21:57;99602.31;;;18.00;81.00
11672;BME280;5892;43.412;24.612;2023-04-19T11:24:25;99597.88;;;17.66;82.34
11672;BME280;5892;43.412;24.612;2023-04-19T11:26:54;99604.78;;;17.79;82.89
11672;BME280;5892;43.412;24.612;2023-04-19T11:29:23;99606.81;;;17.82;83.31
11672;BME280;5892;43.412;24.612;2023-04-19T11:31:50;99593.41;;;17.58;82.12
11672;BME280;5892;43.412;24.612;2023-04-19T11:34:23;99604.31;;;17.47;84.51
11672;BME280;5892;43.412;24.612;2023-04-19T11:36:50;99597.75;;;17.32;84.69
11672;BME280;5892;43.412;24.612;2023-04-19T11:39:18;99583.66;;;17.15;83.24
11672;BME280;5892;43.412;24.612;2023-04-19T11:41:45;99478.75;;;16.34;84.07
11672;BME280;5892;43.412;24.612;2023-04-19T11:44:14;99594.44;;;17.23;85.31
11672;BME280;5892;43.412;24.612;2023-04-19T11:46:41;99603.59;;;17.27;84.18
11672;BME280;5892;43.412;24.612;2023-04-19T11:49:08;99592.69;;;17.38;83.08
11672;BME280;5892;43.412;24.612;2023-04-19T11:51:41;99510.03;;;17.10;84.18
11672;BME280;5892;43.412;24.612;2023-04-19T11:54:12;99584.13;;;17.73;85.69
11672;BME280;5892;43.412;24.612;2023-04-19T11:56:59;99580.69;;;17.83;87.28
11672;BME280;5892;43.412;24.612;2023-04-19T11:59:27;99521.47;;;17.38;87.71
11672;BME280;5892;43.412;24.612;2023-04-19T12:01:55;99583.19;;;17.62;89.03
11672;BME280;5892;43.412;24.612;2023-04-19T12:04:21;99575.75;;;17.69;88.18
11672;BME280;5892;43.412;24.612;2023-04-19T12:06:57;99568.66;;;17.72;87.67
11672;BME280;5892;43.412;24.612;2023-04-19T12:09:25;99572.28;;;17.76;88.32
11672;BME280;5892;43.412;24.612;2023-04-19T12:11:52;99518.25;;;17.33;87.04
11672;BME280;5892;43.412;24.612;2023-04-19T12:14:21;99579.06;;;17.78;84.46
11672;BME280;5892;43.412;24.612;2023-04-19T12:17:10;99552.75;;;17.65;83.02
11672;BME280;5892;43.412;24.612;2023-04-19T12:19:42;99554.16;;;17.82;82.33
11672;BME280;5892;43.412;24.612;2023-04-19T12:22:13;99556.75;;;18.01;81.73
11672;BME280;5892;43.412;24.612;2023-04-19T12:24:41;99547.41;;;18.16;81.54
11672;BME280;5892;43.412;24.612;2023-04-19T12:27:08;99474.63;;;17.86;80.66
11672;BME280;5892;43.412;24.612;2023-04-19T12:29:36;99453.69;;;17.59;78.22
11672;BME280;5892;43.412;24.612;2023-04-19T12:32:04;99464.97;;;17.73;78.29
11672;BME280;5892;43.412;24.612;2023-04-19T12:34:31;99487.72;;;17.89;77.94
11672;BME280;5892;43.412;24.612;2023-04-19T12:36:59;99480.50;;;17.81;78.28
11672;BME280;5892;43.412;24.612;2023-04-19T12:39:28;99531.59;;;17.84;79.46
11672;BME280;5892;43.412;24.612;2023-04-19T12:41:55;99519.25;;;17.77;79.80
11672;BME280;5892;43.412;24.612;2023-04-19T12:44:23;99517.28;;;17.78;80.26
11672;BME280;5892;43.412;24.612;2023-04-19T12:46:50;99532.75;;;17.79;79.57
11672;BME280;5892;43.412;24.612;2023-04-19T12:49:21;99503.16;;;17.57;80.90
11672;BME280;5892;43.412;24.612;2023-04-19T12:51:48;99501.00;;;17.73;80.49
11672;BME280;5892;43.412;24.612;2023-04-19T12:54:15;99492.56;;;17.62;79.85
11672;BME280;5892;43.412;24.612;2023-04-19T12:56:43;99533.94;;;17.82;79.86
11672;BME280;5892;43.412;24.612;2023-04-19T12:59:11;99507.00;;;17.78;78.99